createdAt,value
2018-05-29T00:00:35.204Z,22.00
2018-05-29T00:03:02.728Z,22.00
2018-05-29T00:05:30.212Z,22.00
2018-05-29T00:07:57.704Z,22.00
2018-05-29T00:10:25.204Z,21.90
2018-05-29T00:12:52.706Z,21.90
2018-05-29T00:15:20.205Z,21.90
2018-05-29T00:17:47.700Z,21.80
2018-05-29T00:20:15.184Z,21.80
2018-05-29T00:22:42.692Z,21.80
2018-05-29T00:25:10.179Z,21.80
2018-05-29T00:27:38.441Z,21.80
2018-05-29T00:30:06.720Z,21.80
2018-05-29T00:32:34.196Z,21.80
2018-05-29T00:35:02.454Z,21.60
2018-05-29T00:37:29.974Z,21.60
2018-05-29T00:39:57.465Z,21.80
2018-05-29T00:42:24.955Z,21.90
2018-05-29T00:44:52.449Z,21.90
2018-05-29T00:47:19.937Z,22.00
2018-05-29T00:49:47.424Z,21.90
2018-05-29T00:52:14.917Z,21.90
2018-05-29T00:54:42.413Z,21.80
2018-05-29T00:57:09.906Z,21.90
2018-05-29T00:59:37.399Z,21.90
2018-05-29T01:02:04.893Z,21.90
2018-05-29T01:04:32.384Z,21.90
2018-05-29T01:06:59.859Z,21.90
2018-05-29T01:09:27.357Z,21.80
2018-05-29T01:11:55.611Z,21.60
2018-05-29T01:14:23.107Z,21.60
2018-05-29T01:16:51.360Z,21.30
2018-05-29T01:19:18.849Z,21.30
2018-05-29T01:21:47.120Z,21.20
2018-05-29T01:24:14.612Z,21.20
2018-05-29T01:26:42.120Z,21.10
2018-05-29T01:29:09.636Z,21.10
2018-05-29T01:31:37.119Z,21.10
2018-05-29T01:34:04.610Z,21.10
2018-05-29T01:36:32.144Z,21.20
2018-05-29T01:38:59.629Z,21.20
2018-05-29T01:41:27.120Z,21.10
2018-05-29T01:43:55.394Z,21.00
2018-05-29T01:46:22.867Z,21.00
2018-05-29T01:48:50.356Z,21.00
2018-05-29T01:51:17.849Z,21.00
2018-05-29T01:53:45.329Z,20.90
2018-05-29T01:56:12.864Z,20.80
2018-05-29T01:58:40.364Z,20.60
2018-05-29T02:01:07.870Z,20.60
2018-05-29T02:03:35.363Z,20.40
2018-05-29T02:06:02.852Z,20.40
2018-05-29T02:08:30.329Z,20.50
2018-05-29T02:10:57.858Z,20.60
2018-05-29T02:13:25.362Z,20.60
2018-05-29T02:15:52.844Z,20.50
2018-05-29T02:18:21.109Z,20.30
2018-05-29T02:20:48.578Z,20.20
2018-05-29T02:23:16.832Z,20.00
2018-05-29T02:25:44.350Z,20.00
2018-05-29T02:28:11.839Z,20.00
2018-05-29T02:30:39.325Z,19.90
2018-05-29T02:33:06.846Z,19.80
2018-05-29T02:35:34.343Z,19.80
2018-05-29T02:38:01.849Z,19.70
2018-05-29T02:40:29.348Z,19.80
2018-05-29T02:42:56.870Z,19.80
2018-05-29T02:45:24.361Z,19.80
2018-05-29T02:47:51.855Z,19.70
2018-05-29T02:50:19.353Z,19.70
2018-05-29T02:52:46.846Z,19.70
2018-05-29T02:55:14.332Z,19.70
2018-05-29T02:57:41.853Z,19.70
2018-05-29T03:00:09.357Z,19.70
2018-05-29T03:02:36.864Z,19.80
2018-05-29T03:05:05.144Z,19.90
2018-05-29T03:07:33.426Z,19.90
2018-05-29T03:10:01.687Z,20.00
2018-05-29T03:12:29.189Z,20.00
2018-05-29T03:14:56.671Z,20.00
2018-05-29T03:17:24.165Z,20.00
2018-05-29T03:19:51.665Z,19.90
2018-05-29T03:22:19.934Z,19.80
2018-05-29T03:24:48.194Z,19.80
2018-05-29T03:27:15.692Z,19.70
2018-05-29T03:29:43.951Z,19.70
2018-05-29T03:32:12.204Z,19.60
2018-05-29T03:34:39.702Z,19.60
2018-05-29T03:37:07.190Z,19.50
2018-05-29T03:39:34.670Z,19.50
2018-05-29T03:42:02.160Z,19.50
2018-05-29T03:44:29.651Z,19.50
2018-05-29T03:46:57.925Z,19.40
2018-05-29T03:49:25.448Z,19.40
2018-05-29T03:51:52.905Z,19.40
2018-05-29T03:54:20.392Z,19.30
2018-05-29T03:56:47.887Z,19.30
2018-05-29T03:59:16.259Z,19.40
2018-05-29T04:01:43.774Z,19.40
2018-05-29T04:04:11.269Z,19.30
2018-05-29T04:06:38.752Z,19.30
2018-05-29T04:09:06.248Z,19.30
2018-05-29T04:11:33.732Z,19.30
2018-05-29T04:14:01.228Z,19.30
2018-05-29T04:16:28.711Z,19.30
2018-05-29T04:18:56.988Z,19.30
2018-05-29T04:21:25.267Z,19.30
2018-05-29T04:23:53.522Z,19.30
2018-05-29T04:26:21.027Z,19.30
2018-05-29T04:28:48.537Z,19.30
2018-05-29T04:31:16.035Z,19.30
2018-05-29T04:33:43.548Z,19.30
2018-05-29T04:36:11.054Z,19.20
2018-05-29T04:38:38.540Z,19.20
2018-05-29T04:41:06.808Z,19.10
2018-05-29T04:43:35.061Z,19.10
2018-05-29T04:46:02.557Z,19.10
2018-05-29T04:48:30.820Z,19.10
2018-05-29T04:50:58.356Z,19.10
2018-05-29T04:53:25.874Z,19.10
2018-05-29T04:55:53.376Z,19.10
2018-05-29T04:58:20.889Z,19.00
2018-05-29T05:00:49.140Z,18.90
2018-05-29T05:03:16.640Z,18.90
2018-05-29T05:05:44.938Z,18.90
2018-05-29T05:08:12.469Z,18.90
2018-05-29T05:10:39.982Z,19.00
2018-05-29T05:13:07.462Z,19.00
2018-05-29T05:15:34.954Z,19.00
2018-05-29T05:18:02.457Z,19.00
2018-05-29T05:20:30.030Z,19.00
2018-05-29T05:22:57.516Z,18.90
2018-05-29T05:25:25.019Z,18.90
2018-05-29T05:27:53.283Z,19.00
2018-05-29T05:30:20.766Z,19.00
2018-05-29T05:32:49.028Z,19.10
2018-05-29T05:35:16.531Z,19.10
2018-05-29T05:37:44.015Z,19.10
2018-05-29T05:40:11.534Z,19.00
2018-05-29T05:42:39.779Z,19.00
2018-05-29T05:45:07.263Z,19.00
2018-05-29T05:47:34.761Z,19.00
2018-05-29T05:50:02.250Z,19.00
2018-05-29T05:52:29.753Z,19.00
2018-05-29T05:54:57.251Z,19.10
2018-05-29T05:57:24.743Z,19.20
2018-05-29T05:59:52.240Z,19.20
2018-05-29T06:02:19.775Z,19.20
2018-05-29T06:04:47.265Z,19.20
2018-05-29T06:07:14.765Z,19.30
2018-05-29T06:09:42.260Z,19.40
2018-05-29T06:12:10.522Z,19.60
2018-05-29T06:14:38.030Z,19.60
2018-05-29T06:17:05.535Z,19.60
2018-05-29T06:19:33.021Z,19.70
2018-05-29T06:22:00.531Z,19.70
2018-05-29T06:24:28.048Z,19.70
2018-05-29T06:26:55.544Z,19.80
2018-05-29T06:29:23.057Z,19.80
2018-05-29T06:31:50.535Z,19.70
2018-05-29T06:34:18.019Z,19.80
2018-05-29T06:36:45.544Z,19.90
2018-05-29T06:39:13.107Z,20.00
2018-05-29T06:41:40.602Z,20.00
2018-05-29T06:44:08.112Z,20.10
2018-05-29T06:46:36.372Z,20.30
2018-05-29T06:49:03.849Z,20.30
2018-05-29T06:51:32.120Z,20.30
2018-05-29T06:53:59.609Z,20.30
2018-05-29T06:56:27.112Z,20.30
2018-05-29T06:58:54.607Z,20.30
2018-05-29T07:01:22.119Z,20.40
2018-05-29T07:03:49.633Z,20.50
2018-05-29T07:06:17.129Z,20.60
2018-05-29T07:08:45.368Z,20.80
2018-05-29T07:11:12.878Z,20.80
2018-05-29T07:13:40.379Z,20.70
2018-05-29T07:16:07.878Z,20.80
2018-05-29T07:18:35.371Z,20.70
2018-05-29T07:21:02.856Z,20.70
2018-05-29T07:23:30.342Z,20.70
2018-05-29T07:25:57.845Z,20.80
2018-05-29T07:28:26.111Z,20.70
2018-05-29T07:30:53.594Z,20.70
2018-05-29T07:33:21.076Z,20.70
2018-05-29T07:35:48.573Z,20.80
2018-05-29T07:38:16.079Z,20.80
2018-05-29T07:40:43.574Z,20.80
2018-05-29T07:43:11.093Z,20.70
2018-05-29T07:45:39.363Z,20.50
2018-05-29T07:48:07.667Z,20.60
2018-05-29T07:50:35.898Z,20.70
2018-05-29T07:53:03.403Z,20.60
2018-05-29T07:55:31.663Z,21.00
2018-05-29T07:57:59.156Z,21.00
2018-05-29T08:00:26.637Z,20.90
2018-05-29T08:02:54.135Z,20.90
2018-05-29T08:05:21.619Z,21.00
2018-05-29T08:07:49.125Z,21.20
2018-05-29T08:10:16.603Z,21.30
2018-05-29T08:12:44.104Z,21.40
2018-05-29T08:15:11.598Z,21.70
2018-05-29T08:17:39.099Z,21.70
2018-05-29T08:20:06.600Z,22.00
2018-05-29T08:22:34.867Z,22.00
2018-05-29T08:25:02.357Z,22.00
2018-05-29T08:27:29.859Z,22.00
2018-05-29T08:29:57.351Z,21.90
2018-05-29T08:32:24.851Z,21.90
2018-05-29T08:34:52.350Z,22.10
2018-05-29T08:37:19.854Z,22.10
2018-05-29T08:39:47.358Z,22.30
2018-05-29T08:42:14.865Z,22.30
2018-05-29T08:44:42.376Z,22.20
2018-05-29T08:47:09.869Z,22.30
2018-05-29T08:49:37.742Z,22.50
2018-05-29T08:52:05.238Z,22.80
2018-05-29T08:54:32.736Z,23.10
2018-05-29T08:57:00.244Z,23.20
2018-05-29T08:59:27.747Z,23.30
2018-05-29T09:01:56.033Z,23.50
2018-05-29T09:04:23.513Z,23.50
2018-05-29T09:06:51.035Z,23.40
2018-05-29T09:09:18.537Z,23.30
2018-05-29T09:11:46.031Z,23.30
2018-05-29T09:14:14.295Z,23.90
2018-05-29T09:16:41.771Z,23.80
2018-05-29T09:19:09.267Z,23.90
2018-05-29T09:21:36.769Z,23.60
2018-05-29T09:24:04.265Z,23.40
2018-05-29T09:26:31.747Z,23.20
2018-05-29T09:28:59.247Z,23.20
2018-05-29T09:31:27.489Z,23.00
2018-05-29T09:33:54.978Z,22.90
2018-05-29T09:36:23.261Z,22.70
2018-05-29T09:38:51.514Z,22.70
2018-05-29T09:41:19.018Z,22.60
2018-05-29T09:43:47.303Z,23.10
2018-05-29T09:46:14.817Z,23.00
2018-05-29T09:48:42.306Z,23.10
2018-05-29T09:51:10.570Z,22.80
2018-05-29T09:53:38.085Z,22.80
2018-05-29T09:56:05.571Z,22.90
2018-05-29T09:58:33.066Z,22.90
2018-05-29T10:01:00.573Z,22.60
2018-05-29T10:03:28.061Z,22.50
2018-05-29T10:05:56.325Z,22.90
2018-05-29T10:08:23.816Z,22.80
2018-05-29T10:10:51.305Z,22.60
2018-05-29T10:13:19.599Z,22.30
2018-05-29T10:15:47.839Z,22.30
2018-05-29T10:18:15.352Z,22.30
2018-05-29T10:20:42.852Z,22.20
2018-05-29T10:23:10.344Z,21.90
2018-05-29T10:25:37.848Z,21.90
2018-05-29T10:28:05.356Z,22.20
2018-05-29T10:30:32.844Z,22.20
2018-05-29T10:33:01.110Z,22.20
2018-05-29T10:35:28.590Z,22.10
2018-05-29T10:37:56.080Z,22.10
2018-05-29T10:40:23.582Z,22.20
2018-05-29T10:42:51.071Z,22.50
2018-05-29T10:45:18.568Z,22.70
2018-05-29T10:47:46.071Z,22.70
2018-05-29T10:50:13.552Z,22.70
2018-05-29T10:52:41.040Z,22.90
2018-05-29T10:55:09.300Z,23.20
2018-05-29T10:57:36.793Z,23.20
2018-05-29T11:00:05.035Z,23.70
2018-05-29T11:02:32.534Z,23.60
2018-05-29T11:05:00.781Z,24.10
2018-05-29T11:07:28.273Z,24.10
2018-05-29T11:09:56.527Z,24.40
2018-05-29T11:12:24.017Z,24.30
2018-05-29T11:14:52.303Z,24.30
2018-05-29T11:17:20.555Z,24.00
2018-05-29T11:19:48.835Z,23.90
2018-05-29T11:22:17.120Z,24.20
2018-05-29T11:24:45.397Z,24.20
2018-05-29T11:27:12.886Z,24.20
2018-05-29T11:29:41.167Z,24.30
2018-05-29T11:32:09.407Z,24.70
2018-05-29T11:34:36.893Z,24.60
2018-05-29T11:37:04.410Z,25.00
2018-05-29T11:39:31.899Z,24.90
2018-05-29T11:41:59.389Z,24.70
2018-05-29T11:44:27.685Z,25.00
2018-05-29T11:46:55.179Z,25.00
2018-05-29T11:49:22.664Z,25.20
2018-05-29T11:51:50.168Z,25.20
2018-05-29T11:54:18.433Z,24.70
2018-05-29T11:56:46.688Z,24.40
2018-05-29T11:59:14.206Z,24.40
2018-05-29T12:01:41.709Z,24.40
2018-05-29T12:04:09.201Z,24.30
2018-05-29T12:06:36.704Z,24.10
2018-05-29T12:09:04.194Z,24.10
2018-05-29T12:11:31.681Z,24.20
2018-05-29T12:13:59.186Z,24.30
2018-05-29T12:16:26.663Z,24.40
2018-05-29T12:18:54.154Z,24.30
2018-05-29T12:21:21.662Z,24.20
2018-05-29T12:23:49.176Z,24.10
2018-05-29T12:26:16.667Z,24.00
2018-05-29T12:28:44.958Z,24.00
2018-05-29T12:31:13.241Z,24.00
2018-05-29T12:33:41.492Z,23.80
2018-05-29T12:36:09.007Z,23.80
2018-05-29T12:38:36.512Z,23.90
2018-05-29T12:41:04.014Z,24.20
2018-05-29T12:43:31.524Z,24.20
2018-05-29T12:45:59.005Z,24.10
2018-05-29T12:48:26.491Z,23.90
2018-05-29T12:50:54.769Z,23.80
2018-05-29T12:53:22.280Z,23.80
2018-05-29T12:55:49.749Z,23.40
2018-05-29T12:58:17.265Z,23.30
2018-05-29T13:00:45.527Z,23.10
2018-05-29T13:03:13.021Z,23.10
2018-05-29T13:05:41.283Z,22.90
2018-05-29T13:08:08.779Z,22.90
2018-05-29T13:10:36.295Z,23.10
2018-05-29T13:13:03.785Z,23.20
2018-05-29T13:15:31.284Z,23.20
2018-05-29T13:17:58.801Z,23.20
2018-05-29T13:20:27.085Z,23.20
2018-05-29T13:22:55.346Z,23.10
2018-05-29T13:25:22.851Z,23.10
2018-05-29T13:27:50.360Z,23.40
2018-05-29T13:30:17.833Z,23.70
2018-05-29T13:32:45.362Z,24.10
2018-05-29T13:35:12.933Z,24.40
2018-05-29T13:37:40.354Z,24.70
2018-05-29T13:40:08.623Z,25.10
2018-05-29T13:42:36.133Z,25.00
2018-05-29T13:45:03.626Z,24.90
2018-05-29T13:47:31.133Z,25.20
2018-05-29T13:49:58.614Z,25.50
2018-05-29T13:52:26.100Z,25.70
2018-05-29T13:54:54.374Z,25.90
2018-05-29T13:57:21.861Z,25.90
2018-05-29T13:59:49.342Z,26.00
2018-05-29T14:02:17.619Z,25.40
2018-05-29T14:04:45.100Z,25.40
2018-05-29T14:07:12.578Z,25.40
2018-05-29T14:09:40.084Z,25.40
2018-05-29T14:12:07.613Z,25.40
2018-05-29T14:14:35.105Z,25.70
2018-05-29T14:17:02.603Z,25.80
2018-05-29T14:19:30.866Z,26.30
2018-05-29T14:21:58.397Z,26.30
2018-05-29T14:24:25.929Z,26.90
2018-05-29T14:26:54.178Z,27.00
2018-05-29T14:29:21.679Z,27.00
2018-05-29T14:31:49.169Z,27.10
2018-05-29T14:34:16.693Z,27.40
2018-05-29T14:36:44.945Z,27.80
2018-05-29T14:39:12.459Z,27.70
2018-05-29T14:41:39.957Z,27.90
2018-05-29T14:44:07.544Z,28.00
2018-05-29T14:46:34.963Z,28.30
2018-05-29T14:49:02.466Z,28.30
2018-05-29T14:51:29.956Z,28.60
2018-05-29T14:53:57.433Z,29.10
2018-05-29T14:56:24.945Z,29.20
2018-05-29T14:58:52.484Z,28.90
2018-05-29T15:01:19.970Z,29.00
2018-05-29T15:03:47.468Z,29.20
2018-05-29T15:06:14.992Z,28.50
2018-05-29T15:08:42.502Z,27.50
2018-05-29T15:11:10.018Z,26.80
2018-05-29T15:13:37.531Z,27.00
2018-05-29T15:16:05.030Z,27.00
2018-05-29T15:18:32.566Z,26.50
2018-05-29T15:21:00.038Z,26.10
2018-05-29T15:23:27.520Z,26.00
2018-05-29T15:25:55.792Z,25.90
2018-05-29T15:28:23.306Z,25.80
2018-05-29T15:30:50.824Z,26.40
2018-05-29T15:33:18.338Z,27.10
2018-05-29T15:35:45.829Z,26.90
2018-05-29T15:38:13.318Z,27.20
2018-05-29T15:40:40.832Z,27.50
2018-05-29T15:43:08.346Z,27.80
2018-05-29T15:45:35.873Z,28.00
2018-05-29T15:48:03.364Z,28.30
2018-05-29T15:50:30.864Z,28.30
2018-05-29T15:52:58.368Z,28.10
2018-05-29T15:55:25.877Z,28.00
2018-05-29T15:57:53.375Z,28.40
2018-05-29T16:00:21.655Z,29.00
2018-05-29T16:02:49.149Z,29.00
2018-05-29T16:05:16.644Z,29.40
2018-05-29T16:07:44.136Z,29.20
2018-05-29T16:10:12.417Z,29.00
2018-05-29T16:12:39.935Z,28.90
2018-05-29T16:15:08.223Z,27.20
2018-05-29T16:17:35.721Z,27.20
2018-05-29T16:20:03.993Z,25.50
2018-05-29T16:22:31.482Z,25.50
2018-05-29T16:24:59.725Z,24.80
2018-05-29T16:27:27.235Z,24.80
2018-05-29T16:29:54.723Z,24.60
2018-05-29T16:32:22.235Z,24.40
2018-05-29T16:34:50.513Z,23.90
2018-05-29T16:37:17.994Z,23.90
2018-05-29T16:39:46.257Z,23.50
2018-05-29T16:42:14.524Z,23.50
2018-05-29T16:44:42.003Z,23.50
2018-05-29T16:47:09.505Z,23.40
2018-05-29T16:49:37.028Z,23.20
2018-05-29T16:52:05.293Z,23.00
2018-05-29T16:54:32.785Z,22.90
2018-05-29T16:57:01.058Z,22.90
2018-05-29T16:59:28.565Z,22.90
2018-05-29T17:01:56.086Z,22.80
2018-05-29T17:04:24.342Z,22.70
2018-05-29T17:06:51.840Z,22.70
2018-05-29T17:09:19.337Z,22.70
2018-05-29T17:11:46.856Z,22.50
2018-05-29T17:14:15.118Z,22.50
2018-05-29T17:16:42.647Z,22.40
2018-05-29T17:19:10.135Z,22.50
2018-05-29T17:21:37.630Z,22.40
2018-05-29T17:24:05.897Z,22.40
2018-05-29T17:26:33.380Z,22.40
2018-05-29T17:29:00.876Z,22.40
2018-05-29T17:31:28.408Z,22.40
2018-05-29T17:33:55.892Z,22.40
2018-05-29T17:36:23.418Z,22.30
2018-05-29T17:38:51.686Z,22.30
2018-05-29T17:41:19.180Z,22.30
2018-05-29T17:43:47.435Z,22.40
2018-05-29T17:46:14.920Z,22.40
2018-05-29T17:48:43.161Z,22.30
2018-05-29T17:51:10.700Z,22.30
2018-05-29T17:53:38.193Z,22.20
2018-05-29T17:56:05.883Z,22.10
2018-05-29T17:58:33.571Z,22.00
2018-05-29T18:01:01.075Z,21.80
2018-05-29T18:03:28.752Z,21.70
2018-05-29T18:05:57.045Z,21.40
2018-05-29T18:08:24.529Z,21.40
2018-05-29T18:10:52.795Z,21.30
2018-05-29T18:13:20.500Z,21.20
2018-05-29T18:15:48.017Z,21.20
2018-05-29T18:18:15.731Z,21.10
2018-05-29T18:20:43.502Z,21.00
2018-05-29T18:23:11.229Z,20.90
2018-05-29T18:25:38.769Z,20.80
2018-05-29T18:28:06.386Z,20.70
2018-05-29T18:30:33.959Z,20.60
2018-05-29T18:33:01.466Z,20.60
2018-05-29T18:35:29.021Z,20.60
2018-05-29T18:37:56.569Z,20.60
2018-05-29T18:40:24.114Z,20.60
2018-05-29T18:42:51.641Z,20.50
2018-05-29T18:45:19.141Z,20.40
2018-05-29T18:47:46.666Z,20.20
2018-05-29T18:50:14.180Z,20.00
2018-05-29T18:52:41.673Z,19.80
2018-05-29T18:55:09.203Z,19.70
2018-05-29T18:57:36.692Z,19.70
2018-05-29T19:00:04.953Z,19.70
2018-05-29T19:02:32.458Z,19.70
2018-05-29T19:04:59.948Z,19.90
2018-05-29T19:07:28.210Z,19.70
2018-05-29T19:09:55.774Z,19.60
2018-05-29T19:12:23.208Z,19.70
2018-05-29T19:14:50.706Z,19.70
2018-05-29T19:17:18.206Z,19.60
2018-05-29T19:19:45.709Z,19.50
2018-05-29T19:22:13.216Z,19.40
2018-05-29T19:24:41.486Z,19.50
2018-05-29T19:27:09.743Z,19.50
2018-05-29T19:29:37.265Z,19.40
2018-05-29T19:32:04.756Z,19.20
2018-05-29T19:34:32.248Z,19.10
2018-05-29T19:37:00.524Z,19.10
2018-05-29T19:39:28.030Z,19.00
2018-05-29T19:41:55.510Z,19.10
2018-05-29T19:44:22.997Z,19.20
2018-05-29T19:46:50.491Z,19.20
2018-05-29T19:49:17.982Z,19.20
2018-05-29T19:51:45.519Z,19.20
2018-05-29T19:54:13.023Z,19.10
2018-05-29T19:56:40.509Z,18.80
2018-05-29T19:59:08.017Z,18.70
2018-05-29T20:01:35.507Z,18.70
2018-05-29T20:04:02.997Z,18.70
2018-05-29T20:06:30.502Z,18.60
2018-05-29T20:08:58.749Z,18.60
2018-05-29T20:11:26.233Z,18.60
2018-05-29T20:13:54.497Z,18.60
2018-05-29T20:16:21.995Z,18.60
2018-05-29T20:18:49.474Z,18.60
2018-05-29T20:21:16.977Z,18.60
2018-05-29T20:23:44.477Z,18.50
2018-05-29T20:26:12.739Z,18.40
2018-05-29T20:28:40.225Z,18.40
2018-05-29T20:31:07.731Z,18.30
2018-05-29T20:33:35.229Z,18.30
2018-05-29T20:36:03.501Z,18.30
2018-05-29T20:38:30.995Z,18.30
2018-05-29T20:40:58.505Z,18.30
2018-05-29T20:43:26.009Z,18.20
2018-05-29T20:45:54.280Z,18.20
2018-05-29T20:48:22.551Z,18.10
2018-05-29T20:50:50.080Z,18.10
2018-05-29T20:53:17.572Z,18.00
2018-05-29T20:55:45.083Z,17.90
2018-05-29T20:58:12.608Z,17.80
2018-05-29T21:00:40.099Z,18.00
2018-05-29T21:03:07.592Z,18.10
2018-05-29T21:05:35.098Z,18.00
2018-05-29T21:08:02.601Z,17.90
2018-05-29T21:10:30.097Z,17.70
2018-05-29T21:12:57.582Z,17.60
2018-05-29T21:15:25.109Z,17.60
2018-05-29T21:17:52.584Z,17.60
2018-05-29T21:20:20.069Z,17.60
2018-05-29T21:22:47.592Z,17.70
2018-05-29T21:25:15.078Z,17.70
2018-05-29T21:27:42.570Z,17.70
2018-05-29T21:30:10.064Z,17.70
2018-05-29T21:32:37.561Z,17.70
2018-05-29T21:35:05.097Z,17.60
2018-05-29T21:37:33.351Z,17.60
2018-05-29T21:40:01.620Z,17.60
2018-05-29T21:42:29.883Z,17.70
2018-05-29T21:44:57.390Z,17.70
2018-05-29T21:47:24.878Z,17.70
2018-05-29T21:49:52.374Z,17.60
2018-05-29T21:52:19.877Z,17.50
2018-05-29T21:54:47.370Z,17.50
2018-05-29T21:57:14.872Z,17.50
2018-05-29T21:59:42.375Z,17.30
2018-05-29T22:02:09.863Z,17.20
2018-05-29T22:04:37.395Z,17.10
2018-05-29T22:07:04.886Z,17.00
2018-05-29T22:09:32.389Z,17.00
2018-05-29T22:11:59.900Z,17.00
2018-05-29T22:14:27.393Z,16.90
2018-05-29T22:16:54.894Z,16.80
2018-05-29T22:19:23.150Z,16.80
2018-05-29T22:21:50.653Z,16.80
2018-05-29T22:24:18.130Z,16.80
2018-05-29T22:26:45.619Z,16.70
2018-05-29T22:29:13.124Z,16.60
2018-05-29T22:31:41.408Z,16.80
2018-05-29T22:34:09.680Z,16.80
2018-05-29T22:36:37.941Z,16.70
2018-05-29T22:39:05.437Z,16.70
2018-05-29T22:41:33.692Z,16.70
2018-05-29T22:44:01.185Z,16.70
2018-05-29T22:46:28.699Z,16.70
2018-05-29T22:48:56.187Z,16.60
2018-05-29T22:51:23.679Z,16.50
2018-05-29T22:53:51.187Z,16.60
2018-05-29T22:56:18.698Z,16.60
2018-05-29T22:58:46.175Z,16.50
2018-05-29T23:01:13.670Z,16.50
2018-05-29T23:03:41.179Z,16.50
2018-05-29T23:06:09.446Z,16.60
2018-05-29T23:08:36.932Z,16.60
2018-05-29T23:11:05.192Z,16.30
2018-05-29T23:13:32.684Z,16.20
2018-05-29T23:16:00.184Z,16.20
2018-05-29T23:18:28.433Z,16.40
2018-05-29T23:20:55.943Z,16.40
2018-05-29T23:23:23.419Z,16.50
2018-05-29T23:25:50.915Z,16.50
2018-05-29T23:28:18.422Z,16.40
2018-05-29T23:30:45.908Z,16.40
2018-05-29T23:33:13.401Z,16.30
2018-05-29T23:35:40.933Z,16.10
2018-05-29T23:38:08.417Z,16.00
2018-05-29T23:40:36.666Z,16.10
2018-05-29T23:43:04.201Z,16.00
2018-05-29T23:45:31.703Z,16.00
2018-05-29T23:47:59.204Z,15.90
2018-05-29T23:50:26.706Z,15.80
2018-05-29T23:52:54.191Z,15.80
2018-05-29T23:55:21.695Z,15.80
2018-05-29T23:57:49.191Z,15.90
